TAF Text Data
IDs:
Format:
Raw Decoded Include METAR

Data at: 0827 UTC 18 Sep 2021

METAR for:KJCT (Junction/Kimble Cnty, TX, US)
Text:KJCT 180751Z AUTO 00000KT 10SM CLR 23/17 A3008 RMK AO2 SLP145 T02330167
Temperature: 23.3°C ( 74°F)
Dewpoint: 16.7°C ( 62°F) [RH = 66%]
Pressure (altimeter):30.08 inches Hg (1018.7 mb) [Sea level pressure: 1014.5 mb]
Winds:calm
Visibility:10 or more sm (16+ km)
Ceiling:at least 12,000 feet AGL
Clouds:sky clear below 12,000 feet AGL
QC Flag:automated observation with no human augmentation

TAF for:KJCT (Junction/Kimble Cnty, TX, US) issued at 0543 UTC 18 Sep 2021
Text:KJCT 180543Z 1806/1906 06008KT P6SM SKC
Forecast period:0600 to 1900 UTC 18 September 2021
Forecast type:FROM: standard forecast or significant change
Winds:from the ENE (60 degrees) at 9 MPH (8 knots; 4.1 m/s)
Visibility:6 or more sm (10+ km)
Ceiling:at least 12,000 feet AGL
Clouds:clear skies
Text:FM181900 04007KT P6SM SCT080
Forecast period:1900 UTC 18 September 2021 to 0600 UTC 19 September 2021
Forecast type:FROM: standard forecast or significant change
Winds:from the NE (40 degrees) at 8 MPH (7 knots; 3.6 m/s)
Visibility:6 or more sm (10+ km)
Ceiling:at least 12,000 feet AGL
Clouds: scattered clouds at 8000 feet AGL